Terminal Aerodrome Forecast
Issued by NWS

Home | Current Version | Previous Version | Text Only | Print | Product List | Glossary On
Versions: 1 2 3 4 5 6 7 8 9 10 11 12 13 14
000
FTPA31 PHFO 231516 AAA
TAFHTO
TAF AMD
PHTO 231516Z 2315/2412 02018G28KT 1SM +RA BR FEW002 SCT005 OVC010
     FM240600 25014KT P6SM -SHRA SCT025 BKN045=

USA.gov is the U.S. government's official web portal to all federal, state and local government web resources and services.